createdAt,value
2023-04-24T00:02:12.189Z,1.00
2023-04-24T00:04:45.886Z,1.00
2023-04-24T00:07:14.117Z,1.00
2023-04-24T00:09:41.672Z,1.00
2023-04-24T00:12:09.233Z,1.00
2023-04-24T00:14:36.775Z,1.00
2023-04-24T00:17:04.252Z,1.00
2023-04-24T00:19:31.843Z,1.00
2023-04-24T00:21:59.059Z,99.90
2023-04-24T00:24:26.498Z,1.00
2023-04-24T00:26:53.578Z,1.00
2023-04-24T00:29:20.986Z,1.00
2023-04-24T00:31:48.238Z,99.90
2023-04-24T00:34:15.637Z,1.00
2023-04-24T00:36:42.641Z,1.00
2023-04-24T00:39:10.001Z,1.00
2023-04-24T00:41:37.259Z,1.00
2023-04-24T00:44:04.641Z,1.00
2023-04-24T00:46:32.620Z,1.00
2023-04-24T00:49:00.868Z,1.00
2023-04-24T00:51:28.489Z,99.90
2023-04-24T00:53:56.397Z,1.00
2023-04-24T00:56:24.408Z,99.90
2023-04-24T00:58:52.279Z,1.00
2023-04-24T01:01:22.997Z,1.00
2023-04-24T01:03:53.652Z,1.00
2023-04-24T01:06:21.433Z,1.00
2023-04-24T01:08:49.695Z,99.90
2023-04-24T01:11:17.036Z,1.00
2023-04-24T01:13:47.523Z,1.00
2023-04-24T01:16:16.318Z,1.00
2023-04-24T01:18:44.327Z,99.90
2023-04-24T01:21:16.063Z,99.90
2023-04-24T01:23:46.804Z,72.10
2023-04-24T01:26:17.697Z,99.90
2023-04-24T01:28:45.790Z,99.90
2023-04-24T01:33:42.708Z,1.00
2023-04-24T01:36:12.393Z,1.00
2023-04-24T01:38:39.867Z,1.00
2023-04-24T01:41:06.914Z,99.90
2023-04-24T01:43:34.256Z,99.90
2023-04-24T01:46:01.391Z,99.90
2023-04-24T01:48:29.064Z,99.90
2023-04-24T01:50:57.525Z,99.90
2023-04-24T01:53:24.901Z,1.00
2023-04-24T01:55:52.004Z,1.00
2023-04-24T01:58:19.366Z,99.90
2023-04-24T02:00:46.456Z,99.90
2023-04-24T02:03:15.569Z,99.90
2023-04-24T02:05:46.267Z,99.90
2023-04-24T02:08:13.676Z,1.00
2023-04-24T02:10:41.023Z,1.00
2023-04-24T02:13:08.572Z,1.00
2023-04-24T02:15:36.993Z,99.90
2023-04-24T02:18:04.658Z,1.00
2023-04-24T02:20:35.072Z,99.90
2023-04-24T02:23:02.764Z,36.70
2023-04-24T02:25:29.880Z,1.00
2023-04-24T02:27:57.176Z,1.00
2023-04-24T02:30:24.233Z,99.90
2023-04-24T02:32:51.613Z,99.90
2023-04-24T02:35:19.037Z,1.00
2023-04-24T02:37:46.421Z,1.00
2023-04-24T02:40:13.728Z,1.00
2023-04-24T02:42:41.098Z,99.90
2023-04-24T02:45:08.703Z,20.00
2023-04-24T02:47:36.128Z,99.90
2023-04-24T02:50:04.332Z,99.90
2023-04-24T02:54:59.267Z,99.90
2023-04-24T02:57:26.628Z,1.00
2023-04-24T02:59:53.867Z,99.90
2023-04-24T03:02:21.928Z,1.00
2023-04-24T03:07:17.189Z,1.00
2023-04-24T03:19:35.656Z,1.00
2023-04-24T03:22:10.679Z,1.00
2023-04-24T03:24:38.919Z,99.90
2023-04-24T03:27:06.556Z,1.00
2023-04-24T03:29:47.551Z,1.00
2023-04-24T03:32:16.302Z,1.00
2023-04-24T03:34:43.685Z,1.00
2023-04-24T03:37:16.134Z,1.00
2023-04-24T03:39:51.439Z,8.80
2023-04-24T03:42:23.446Z,63.60
2023-04-24T03:44:55.302Z,99.90
2023-04-24T03:47:26.419Z,1.00
2023-04-24T03:49:57.009Z,99.90
2023-04-24T03:52:24.714Z,99.90
2023-04-24T03:54:52.308Z,99.90
2023-04-24T03:57:19.748Z,1.00
2023-04-24T04:02:27.815Z,1.00
2023-04-24T04:04:55.653Z,99.90
2023-04-24T04:07:23.045Z,1.00
2023-04-24T04:12:18.421Z,1.00
2023-04-24T04:14:47.711Z,1.00
2023-04-24T04:19:44.003Z,1.00
2023-04-24T04:22:11.694Z,1.00
2023-04-24T04:27:12.035Z,99.90
2023-04-24T04:29:47.762Z,1.00
2023-04-24T04:32:17.163Z,1.00
2023-04-24T04:34:46.514Z,1.00
2023-04-24T04:42:24.732Z,1.00
2023-04-24T04:47:25.357Z,99.90
2023-04-24T04:49:54.941Z,1.00
2023-04-24T04:52:27.659Z,1.00
2023-04-24T04:55:14.385Z,1.00
2023-04-24T04:58:06.104Z,1.00
2023-04-24T05:00:36.766Z,99.90
2023-04-24T05:03:19.102Z,96.70
2023-04-24T05:05:49.045Z,78.10
2023-04-24T05:08:26.581Z,1.00
2023-04-24T05:10:56.218Z,99.90
2023-04-24T05:15:55.186Z,1.00
2023-04-24T05:18:22.582Z,19.70
2023-04-24T05:20:50.539Z,10.10
2023-04-24T05:23:18.062Z,10.80
2023-04-24T05:25:48.452Z,7.40
2023-04-24T05:33:17.810Z,1.00
2023-04-24T05:35:47.539Z,1.00
2023-04-24T05:38:18.766Z,1.00
2023-04-24T05:40:46.341Z,1.00
2023-04-24T05:43:14.003Z,1.00
2023-04-24T05:45:41.323Z,1.00
2023-04-24T05:48:08.747Z,1.00
2023-04-24T05:50:37.198Z,1.00
2023-04-24T05:53:05.190Z,1.00
2023-04-24T05:55:35.360Z,1.00
2023-04-24T05:58:02.849Z,1.00
2023-04-24T06:00:31.177Z,1.00
2023-04-24T06:03:06.565Z,1.00
2023-04-24T06:05:33.937Z,1.00
2023-04-24T06:08:03.833Z,1.00
2023-04-24T06:10:37.144Z,1.00
2023-04-24T06:13:05.594Z,1.00
2023-04-24T06:15:35.281Z,1.00
2023-04-24T06:18:08.392Z,1.00
2023-04-24T06:23:05.015Z,1.00
2023-04-24T06:25:34.385Z,1.00
2023-04-24T06:28:02.852Z,1.00
2023-04-24T06:30:31.505Z,1.00
2023-04-24T06:33:09.296Z,1.00
2023-04-24T06:35:46.428Z,1.00
2023-04-24T06:38:13.778Z,1.00
2023-04-24T06:40:41.254Z,1.00
2023-04-24T06:50:32.074Z,1.00
2023-04-24T06:55:27.076Z,1.00
2023-04-24T06:57:54.471Z,1.00
2023-04-24T07:05:20.923Z,1.00
2023-04-24T07:10:17.860Z,1.00
2023-04-24T07:22:44.976Z,1.00
2023-04-24T07:25:12.503Z,1.00
2023-04-24T07:30:08.455Z,1.00
2023-04-24T07:37:31.378Z,1.00
2023-04-24T07:44:54.146Z,1.00
2023-04-24T07:47:22.890Z,1.00
2023-04-24T08:09:33.989Z,1.00
2023-04-24T08:12:02.380Z,1.00
2023-04-24T08:21:53.941Z,1.00
2023-04-24T08:24:21.098Z,1.00
2023-04-24T08:29:18.568Z,1.00
2023-04-24T08:31:46.017Z,1.00
2023-04-24T08:36:46.940Z,1.00
2023-04-24T08:39:15.368Z,1.00
2023-04-24T08:41:47.065Z,1.00
2023-04-24T08:44:16.766Z,1.00
2023-04-24T08:46:48.783Z,1.00
2023-04-24T08:49:20.682Z,1.00
2023-04-24T08:51:49.089Z,1.00
2023-04-24T08:54:16.338Z,1.00
2023-04-24T08:56:46.098Z,1.00
2023-04-24T09:01:42.390Z,1.00
2023-04-24T09:04:12.157Z,1.00
2023-04-24T09:14:03.393Z,1.00
2023-04-24T09:21:34.599Z,1.00
2023-04-24T09:24:05.078Z,1.00
2023-04-24T09:29:02.397Z,1.00
2023-04-24T09:31:30.804Z,1.00
2023-04-24T09:34:02.046Z,1.00
2023-04-24T09:36:35.467Z,1.00
2023-04-24T09:44:18.618Z,1.00
2023-04-24T09:46:50.777Z,1.00
2023-04-24T09:49:26.032Z,1.00
2023-04-24T09:54:23.047Z,1.00
2023-04-24T09:56:51.722Z,1.00
2023-04-24T09:59:20.808Z,1.00
2023-04-24T10:01:50.450Z,1.00
2023-04-24T10:04:26.269Z,1.00
2023-04-24T10:06:55.970Z,1.00
2023-04-24T10:09:25.779Z,1.00
2023-04-24T10:11:54.852Z,99.90
2023-04-24T10:14:24.371Z,99.90
2023-04-24T10:16:55.232Z,99.90
2023-04-24T10:24:22.261Z,99.90
2023-04-24T10:29:20.246Z,99.90
2023-04-24T10:34:18.794Z,99.90
2023-04-24T10:39:27.764Z,99.90
2023-04-24T10:44:37.556Z,99.90
2023-04-24T10:47:05.329Z,99.90
2023-04-24T10:49:33.226Z,99.90
2023-04-24T10:52:08.636Z,1.00
2023-04-24T10:54:43.434Z,1.00
2023-04-24T10:57:23.431Z,1.00
2023-04-24T11:00:10.681Z,1.00
2023-04-24T11:02:42.781Z,1.00
2023-04-24T11:05:12.046Z,1.00
2023-04-24T11:08:14.090Z,1.00
2023-04-24T11:11:00.802Z,1.00
2023-04-24T11:13:57.570Z,1.00
2023-04-24T11:16:24.822Z,1.00
2023-04-24T11:19:00.746Z,1.00
2023-04-24T11:21:43.114Z,1.00
2023-04-24T11:24:28.951Z,1.00
2023-04-24T11:26:57.942Z,1.00
2023-04-24T11:29:58.451Z,1.00
2023-04-24T11:32:31.910Z,1.00
2023-04-24T11:35:05.148Z,1.00
2023-04-24T11:37:43.206Z,1.00
2023-04-24T11:40:16.649Z,1.00
2023-04-24T11:42:48.277Z,1.00
2023-04-24T11:45:17.978Z,1.00
2023-04-24T11:47:46.220Z,1.00
2023-04-24T11:50:16.366Z,1.00
2023-04-24T11:52:48.304Z,1.00
2023-04-24T11:55:15.736Z,1.00
2023-04-24T11:57:47.086Z,1.00
2023-04-24T12:00:20.621Z,1.00
2023-04-24T12:02:49.083Z,1.00
2023-04-24T12:05:22.427Z,1.00
2023-04-24T12:10:22.907Z,1.00
2023-04-24T12:12:52.451Z,1.00
2023-04-24T12:17:55.762Z,1.00
2023-04-24T12:20:32.402Z,1.00
2023-04-24T12:23:01.937Z,1.00
2023-04-24T12:25:31.116Z,1.00
2023-04-24T12:28:04.161Z,1.00
2023-04-24T12:30:39.382Z,1.00
2023-04-24T12:35:36.762Z,1.00
2023-04-24T12:38:11.452Z,1.00
2023-04-24T12:43:16.745Z,1.00
2023-04-24T12:58:10.323Z,1.00
2023-04-24T13:00:38.465Z,1.00
2023-04-24T13:03:06.155Z,1.00
2023-04-24T13:05:33.770Z,1.00
2023-04-24T13:08:00.906Z,1.00
2023-04-24T13:10:28.957Z,1.00
2023-04-24T13:12:56.122Z,1.00
2023-04-24T13:17:51.933Z,1.00
2023-04-24T13:22:47.401Z,1.00
2023-04-24T13:25:18.010Z,1.00
2023-04-24T13:27:45.429Z,1.00
2023-04-24T13:30:13.231Z,1.00
2023-04-24T13:32:40.567Z,1.00
2023-04-24T13:35:08.512Z,1.00
2023-04-24T13:40:07.171Z,1.00
2023-04-24T13:42:35.183Z,1.00
2023-04-24T13:45:14.021Z,1.00
2023-04-24T13:47:52.044Z,1.00
2023-04-24T13:50:20.019Z,1.00
2023-04-24T13:52:47.128Z,37.00
2023-04-24T13:55:14.644Z,99.90
2023-04-24T13:57:41.940Z,99.90
2023-04-24T14:00:11.738Z,99.90
2023-04-24T14:02:39.418Z,99.90
2023-04-24T14:05:07.842Z,99.90
2023-04-24T14:07:35.120Z,99.90
2023-04-24T14:10:02.782Z,99.90
2023-04-24T14:14:57.919Z,99.90
2023-04-24T14:17:25.198Z,99.90
2023-04-24T14:19:57.394Z,99.90
2023-04-24T14:22:24.791Z,14.70
2023-04-24T14:24:52.526Z,6.30
2023-04-24T14:27:20.047Z,1.00
2023-04-24T14:29:47.968Z,1.00
2023-04-24T14:32:16.242Z,1.00
2023-04-24T14:34:43.926Z,1.00
2023-04-24T14:37:11.291Z,1.00
2023-04-24T14:39:38.850Z,1.00
2023-04-24T14:42:07.528Z,1.00
2023-04-24T14:44:35.168Z,1.00
2023-04-24T14:47:03.299Z,1.00
2023-04-24T14:49:31.913Z,1.00
2023-04-24T14:52:00.527Z,1.00
2023-04-24T14:54:28.505Z,1.00
2023-04-24T14:56:58.241Z,1.00
2023-04-24T14:59:27.056Z,1.00
2023-04-24T15:02:08.996Z,1.00
2023-04-24T15:04:44.152Z,1.00
2023-04-24T15:07:12.095Z,1.00
2023-04-24T15:09:40.555Z,1.00
2023-04-24T15:12:08.567Z,1.00
2023-04-24T15:14:36.317Z,1.00
2023-04-24T15:17:03.979Z,1.00
2023-04-24T15:19:32.900Z,21.70
2023-04-24T15:22:01.051Z,49.60
2023-04-24T15:24:29.142Z,35.20
2023-04-24T15:26:59.454Z,34.20
2023-04-24T15:29:29.089Z,30.10
2023-04-24T15:31:59.453Z,94.40
2023-04-24T15:34:27.451Z,97.50
2023-04-24T15:36:55.318Z,91.80
2023-04-24T15:39:26.271Z,99.90
2023-04-24T15:51:49.587Z,99.90
2023-04-24T15:54:17.378Z,99.90
2023-04-24T15:56:45.692Z,99.90
2023-04-24T16:01:42.411Z,99.90
2023-04-24T16:04:10.594Z,99.90
2023-04-24T16:06:38.566Z,99.90
2023-04-24T16:09:10.536Z,99.90
2023-04-24T16:14:10.500Z,99.90
2023-04-24T16:19:08.479Z,99.90
2023-04-24T16:21:35.952Z,99.90
2023-04-24T16:24:04.358Z,99.90
2023-04-24T16:26:32.067Z,99.90
2023-04-24T16:31:28.344Z,99.90
2023-04-24T16:33:56.416Z,99.90
2023-04-24T16:36:24.284Z,99.90
2023-04-24T16:38:52.468Z,99.90
2023-04-24T16:41:20.287Z,99.90
2023-04-24T16:43:48.016Z,99.90
2023-04-24T16:46:15.511Z,99.90
2023-04-24T16:48:43.310Z,99.90
2023-04-24T16:51:10.912Z,99.90
2023-04-24T16:53:39.454Z,1.00
2023-04-24T16:56:07.532Z,1.00
2023-04-24T17:01:05.014Z,1.00
2023-04-24T17:06:02.244Z,1.00
2023-04-24T17:08:32.977Z,1.00
2023-04-24T17:11:01.626Z,1.00
2023-04-24T17:15:57.741Z,1.00
2023-04-24T17:18:26.014Z,1.00
2023-04-24T17:20:53.792Z,1.00
2023-04-24T17:23:21.695Z,1.00
2023-04-24T17:25:49.790Z,1.00
2023-04-24T17:28:34.143Z,1.00
2023-04-24T17:31:01.743Z,1.00
2023-04-24T17:33:31.118Z,1.00
2023-04-24T17:36:01.896Z,1.00
2023-04-24T17:38:29.983Z,1.00
2023-04-24T17:40:58.545Z,1.00
2023-04-24T17:43:26.645Z,1.00
2023-04-24T17:45:59.471Z,1.00
2023-04-24T17:48:27.783Z,1.00
2023-04-24T17:50:55.172Z,1.00
2023-04-24T17:53:23.250Z,1.00
2023-04-24T17:55:50.603Z,1.00
2023-04-24T17:58:19.327Z,1.00
2023-04-24T18:00:47.393Z,1.00
2023-04-24T18:03:15.199Z,1.00
2023-04-24T18:05:42.437Z,1.00
2023-04-24T18:08:10.575Z,1.00
2023-04-24T18:10:37.924Z,1.00
2023-04-24T18:13:06.331Z,1.00
2023-04-24T18:15:35.905Z,1.00
2023-04-24T18:18:04.203Z,1.00
2023-04-24T18:20:34.266Z,1.00
2023-04-24T18:23:03.782Z,1.00
2023-04-24T18:25:31.798Z,1.00
2023-04-24T18:27:59.730Z,1.00
2023-04-24T18:30:28.304Z,1.00
2023-04-24T18:32:55.840Z,1.00
2023-04-24T18:35:23.697Z,1.00
2023-04-24T18:37:52.115Z,1.00
2023-04-24T18:40:19.995Z,1.00
2023-04-24T18:42:48.295Z,1.00
2023-04-24T18:45:15.703Z,1.00
2023-04-24T18:47:44.307Z,1.00
2023-04-24T18:50:12.150Z,1.00
2023-04-24T18:52:40.495Z,1.00
2023-04-24T18:55:07.975Z,1.00
2023-04-24T19:00:04.199Z,1.00
2023-04-24T19:02:34.587Z,1.00
2023-04-24T19:05:04.172Z,1.00
2023-04-24T19:07:32.380Z,1.00
2023-04-24T19:10:00.518Z,1.00
2023-04-24T19:12:28.328Z,1.00
2023-04-24T19:17:26.730Z,1.00
2023-04-24T19:19:54.108Z,1.00
2023-04-24T19:22:21.957Z,1.00
2023-04-24T19:24:49.448Z,1.00
2023-04-24T19:29:44.688Z,1.00
2023-04-24T19:32:13.416Z,1.00
2023-04-24T19:34:41.443Z,1.00
2023-04-24T19:37:09.892Z,1.00
2023-04-24T19:39:37.967Z,1.00
2023-04-24T19:44:35.509Z,1.00
2023-04-24T19:47:03.670Z,1.00
2023-04-24T19:49:32.384Z,1.00
2023-04-24T19:52:00.921Z,1.00
2023-04-24T19:54:28.899Z,1.00
2023-04-24T19:56:57.083Z,1.00
2023-04-24T19:59:24.584Z,1.00
2023-04-24T20:01:54.070Z,1.00
2023-04-24T20:04:23.582Z,1.00
2023-04-24T20:06:51.509Z,1.00
2023-04-24T20:09:19.026Z,1.00
2023-04-24T20:11:47.690Z,1.00
2023-04-24T20:14:14.815Z,1.00
2023-04-24T20:16:42.271Z,1.00
2023-04-24T20:19:09.490Z,1.00
2023-04-24T20:21:37.154Z,1.00
2023-04-24T20:24:06.770Z,1.00
2023-04-24T20:26:36.415Z,1.00
2023-04-24T20:29:04.950Z,1.00
2023-04-24T20:31:32.665Z,1.00
2023-04-24T20:33:59.865Z,1.00
2023-04-24T20:36:27.338Z,1.00
2023-04-24T20:38:54.680Z,1.00
2023-04-24T20:41:22.270Z,1.00
2023-04-24T20:43:53.496Z,1.00
2023-04-24T20:46:22.410Z,1.00
2023-04-24T20:48:49.895Z,3.00
2023-04-24T20:51:19.613Z,15.10
2023-04-24T20:53:49.517Z,50.10
2023-04-24T20:56:17.210Z,95.30
2023-04-24T20:58:48.800Z,98.10
2023-04-24T21:01:16.513Z,95.30
2023-04-24T21:03:44.258Z,91.10
2023-04-24T21:08:39.646Z,96.10
2023-04-24T21:11:07.035Z,1.00
2023-04-24T21:13:34.636Z,1.00
2023-04-24T21:16:02.155Z,1.00
2023-04-24T21:18:29.944Z,90.90
2023-04-24T21:20:57.517Z,1.00
2023-04-24T21:23:25.776Z,99.90
2023-04-24T21:25:53.391Z,99.90
2023-04-24T21:28:20.863Z,99.90
2023-04-24T21:30:48.240Z,1.00
2023-04-24T21:35:43.401Z,1.00
2023-04-24T21:38:10.481Z,99.90
2023-04-24T21:40:37.964Z,99.90
2023-04-24T21:43:05.317Z,99.90
2023-04-24T21:45:32.830Z,99.90
2023-04-24T21:48:01.664Z,99.90
2023-04-24T21:50:29.385Z,99.90
2023-04-24T21:52:56.732Z,99.90
2023-04-24T21:55:24.173Z,87.60
2023-04-24T21:57:53.383Z,25.00
2023-04-24T22:00:21.562Z,99.90
2023-04-24T22:02:49.680Z,99.90
2023-04-24T22:05:17.445Z,99.90
2023-04-24T22:07:46.064Z,99.90
2023-04-24T22:10:15.757Z,1.00
2023-04-24T22:12:43.743Z,21.40
2023-04-24T22:15:11.316Z,1.00
2023-04-24T22:17:39.625Z,1.00
2023-04-24T22:20:07.675Z,1.00
2023-04-24T22:22:36.084Z,1.00
2023-04-24T22:25:04.418Z,99.90
2023-04-24T22:27:31.543Z,1.00
2023-04-24T22:29:58.913Z,1.00
2023-04-24T22:32:26.164Z,37.60
2023-04-24T22:34:53.698Z,1.00
2023-04-24T22:37:21.391Z,1.00
2023-04-24T22:39:48.908Z,1.00
2023-04-24T22:42:16.149Z,1.00
2023-04-24T22:44:43.691Z,1.00
2023-04-24T22:47:11.004Z,99.90
2023-04-24T22:49:38.360Z,99.90
2023-04-24T22:52:05.615Z,99.90
2023-04-24T22:54:34.714Z,99.90
2023-04-24T22:57:03.685Z,99.90
2023-04-24T22:59:31.279Z,94.00
2023-04-24T23:01:59.480Z,99.90
2023-04-24T23:04:27.157Z,41.10
2023-04-24T23:06:54.360Z,89.00
2023-04-24T23:09:21.657Z,15.30
2023-04-24T23:11:48.794Z,29.10
2023-04-24T23:14:16.843Z,77.20
2023-04-24T23:16:45.351Z,82.10
2023-04-24T23:19:12.684Z,33.30
2023-04-24T23:21:39.846Z,1.00
2023-04-24T23:24:07.443Z,1.00
2023-04-24T23:29:04.420Z,99.90
2023-04-24T23:31:31.478Z,99.90
2023-04-24T23:34:00.250Z,99.90
2023-04-24T23:36:27.469Z,99.90
2023-04-24T23:38:55.065Z,99.90
2023-04-24T23:41:22.323Z,1.00
2023-04-24T23:43:50.437Z,1.00
2023-04-24T23:46:18.180Z,1.00
2023-04-24T23:48:45.887Z,1.00
2023-04-24T23:51:13.066Z,1.00
2023-04-24T23:53:40.721Z,1.00
2023-04-24T23:56:08.134Z,1.00
2023-04-24T23:58:36.859Z,1.00
